Time;durP1;ratioP1;P1;durP2;ratioP2;P2;SDS_P1;SDS_P2;PMS_P1;PMS_P2;Temp;Humidity;BMP_temperature;BMP_pressure;BME280_temperature;BME280_humidity;BME280_pressure;Samples;Min_cycle;Max_cycle;Signal;HPM_P1;HPM_P2
2022/05/23 00:01:18;;;;;;;;;6.00;4.67;;;;;21.61;51.45;99742.47;4972452;28;45558;-68
2022/05/23 00:03:43;;;;;;;;;8.33;8.33;;;;;21.58;51.49;99738.25;4985998;28;45776;-66
2022/05/23 00:06:09;;;;;;;;;7.00;7.00;;;;;21.49;51.78;99722.22;4988216;28;45527;-67
2022/05/23 00:08:35;;;;;;;;;9.00;9.00;;;;;21.53;51.84;99745.88;4974287;28;45505;-67
2022/05/23 00:11:00;;;;;;;;;9.00;9.00;;;;;21.52;51.72;99738.84;4970566;28;45625;-67
2022/05/23 00:13:27;;;;;;;;;9.33;9.33;;;;;21.51;51.76;99738.97;4972352;28;45457;-67
2022/05/23 00:15:53;;;;;;;;;10.00;9.33;;;;;21.48;52.20;99737.44;4972521;28;45738;-69
2022/05/23 00:18:18;;;;;;;;;12.00;12.00;;;;;21.46;52.19;99727.84;4973639;28;45468;-68
2022/05/23 00:20:43;;;;;;;;;12.33;12.33;;;;;21.45;52.13;99723.50;4974358;28;45627;-66
2022/05/23 00:23:09;;;;;;;;;10.00;9.00;;;;;21.47;52.22;99721.53;4972924;28;46363;-68
2022/05/23 00:25:34;;;;;;;;;8.33;7.67;;;;;21.48;52.29;99724.03;4975584;28;45785;-65
2022/05/23 00:28:00;;;;;;;;;7.33;7.33;;;;;21.46;52.47;99723.34;4975669;28;45489;-68
2022/05/23 00:30:27;;;;;;;;;6.33;6.33;;;;;21.47;52.31;99717.03;4976475;28;45656;-66
2022/05/23 00:35:40;;;;;;;;;8.67;7.67;;;;;21.49;52.39;99693.63;4976136;28;45476;-65
2022/05/23 00:38:05;;;;;;;;;8.33;8.00;;;;;21.48;52.23;99689.25;4976964;28;45543;-67
2022/05/23 00:40:31;;;;;;;;;7.00;7.00;;;;;21.53;52.09;99687.00;4976959;28;45512;-65
2022/05/23 00:43:15;;;;;;;;;7.00;7.00;;;;;21.54;52.34;99683.31;4976288;28;45532;-67
2022/05/23 00:45:51;;;;;;;;;6.00;6.00;;;;;21.54;52.36;99683.31;4978834;28;45557;-64
2022/05/23 00:48:21;;;;;;;;;7.67;7.67;;;;;21.56;52.40;99672.47;4977017;28;45435;-69
2022/05/23 00:50:57;;;;;;;;;7.67;7.00;;;;;21.54;52.53;99669.09;4974502;28;45560;-68
2022/05/23 00:53:39;;;;;;;;;8.00;8.00;;;;;21.56;52.30;99670.66;4975889;28;45436;-69
2022/05/23 00:56:07;;;;;;;;;7.00;7.00;;;;;21.56;52.50;99672.47;4974333;28;45636;-65
2022/05/23 00:58:37;;;;;;;;;6.67;6.67;;;;;21.56;52.27;99675.16;4977258;28;45508;-65
2022/05/23 01:01:07;;;;;;;;;5.00;5.00;;;;;21.58;52.12;99674.03;4976694;28;45507;-67
2022/05/23 01:03:32;;;;;;;;;5.00;5.00;;;;;21.58;52.14;99678.53;4976278;28;45610;-65
2022/05/23 01:05:58;;;;;;;;;7.33;6.00;;;;;21.54;52.13;99661.91;4974996;28;45546;-66
2022/05/23 01:08:24;;;;;;;;;5.00;5.00;;;;;21.57;51.87;99650.06;4976355;28;45494;-66
2022/05/23 01:10:51;;;;;;;;;5.50;5.50;;;;;21.56;51.81;99640.38;4975134;28;45512;-67
2022/05/23 01:13:16;;;;;;;;;9.00;7.67;;;;;21.55;51.76;99630.69;4976004;28;46207;-65
2022/05/23 01:15:48;;;;;;;;;6.00;6.00;;;;;21.55;51.95;99628.00;4975924;28;45470;-64
2022/05/23 01:18:15;;;;;;;;;6.75;5.00;;;;;21.52;51.85;99607.72;4976575;28;45464;-65
2022/05/23 01:20:41;;;;;;;;;5.00;5.00;;;;;21.50;51.98;99595.50;4974206;28;45552;-68
2022/05/23 01:23:25;;;;;;;;;5.67;5.67;;;;;21.52;51.79;99596.16;4976823;28;45574;-63
2022/05/23 01:25:50;;;;;;;;;5.00;5.00;;;;;21.52;52.02;99574.75;4957954;28;45453;-65
2022/05/23 01:28:16;;;;;;;;;5.00;5.00;;;;;21.51;51.92;99567.75;4976228;28;45797;-64
2022/05/23 01:30:43;;;;;;;;;4.75;4.75;;;;;21.47;51.86;99577.06;4975882;28;45609;-67
2022/05/23 01:33:10;;;;;;;;;4.75;4.25;;;;;21.46;52.08;99570.84;4973824;28;45586;-65
2022/05/23 01:35:36;;;;;;;;;5.00;4.00;;;;;21.47;51.99;99585.94;4975837;28;45555;-68
2022/05/23 01:38:02;;;;;;;;;4.75;4.75;;;;;21.45;51.76;99579.03;4976209;28;45504;-64
2022/05/23 01:40:27;;;;;;;;;4.00;4.00;;;;;21.44;51.96;99570.19;4974021;28;45572;-68
2022/05/23 01:42:53;;;;;;;;;3.25;3.00;;;;;21.44;51.69;99562.16;4973270;28;46232;-64
2022/05/23 01:45:23;;;;;;;;;3.50;3.50;;;;;21.44;51.63;99553.25;4975615;28;45441;-64
2022/05/23 01:47:48;;;;;;;;;4.50;3.75;;;;;21.42;51.42;99534.72;4974342;28;45525;-66
2022/05/23 01:50:14;;;;;;;;;6.00;6.00;;;;;21.43;51.61;99524.84;4975923;28;45485;-66
2022/05/23 01:52:40;;;;;;;;;5.00;4.00;;;;;21.41;51.61;99524.97;4975493;28;45720;-64
2022/05/23 01:55:06;;;;;;;;;3.00;3.00;;;;;21.36;51.81;99520.06;4974977;28;45599;-68
2022/05/23 01:57:32;;;;;;;;;3.25;3.25;;;;;21.32;51.79;99516.00;4975715;28;45453;-67
2022/05/23 02:02:47;;;;;;;;;4.00;4.00;;;;;21.39;52.03;99513.63;4974852;28;45801;-66
2022/05/23 02:05:13;;;;;;;;;5.00;5.00;;;;;21.36;51.95;99514.72;4974428;28;46066;-65
2022/05/23 02:07:39;;;;;;;;;4.00;4.00;;;;;21.35;51.89;99515.69;4976129;28;45481;-63
2022/05/23 02:10:04;;;;;;;;;3.00;3.00;;;;;21.35;51.87;99515.69;4975424;28;45621;-64
2022/05/23 02:12:30;;;;;;;;;3.25;3.25;;;;;21.30;51.75;99509.94;4975084;28;46055;-67
2022/05/23 02:14:55;;;;;;;;;5.00;5.00;;;;;21.34;52.00;99516.69;4975265;28;46825;-65
2022/05/23 02:17:21;;;;;;;;;5.00;5.00;;;;;21.33;51.58;99523.06;4975706;28;45516;-67
2022/05/23 02:19:46;;;;;;;;;3.00;3.00;;;;;21.34;51.58;99524.72;4975892;28;45604;-67
2022/05/23 02:22:11;;;;;;;;;6.00;4.33;;;;;21.31;51.68;99530.38;4973996;28;45502;-66
2022/05/23 02:24:37;;;;;;;;;5.00;5.00;;;;;21.31;51.77;99538.41;4974648;28;45492;-65
2022/05/23 02:27:02;;;;;;;;;5.00;5.00;;;;;21.30;51.90;99539.38;4976101;28;45518;-66
2022/05/23 02:29:28;;;;;;;;;4.00;4.00;;;;;21.30;51.92;99534.03;4974625;28;45576;-67
2022/05/23 02:31:53;;;;;;;;;3.00;3.00;;;;;21.31;52.12;99535.72;4975668;28;45459;-66
2022/05/23 02:34:19;;;;;;;;;5.00;4.33;;;;;21.32;51.87;99539.22;4974940;28;45554;-64
2022/05/23 02:36:46;;;;;;;;;5.00;5.00;;;;;21.31;52.14;99546.41;4975169;28;45520;-66
2022/05/23 02:39:13;;;;;;;;;4.00;4.00;;;;;21.28;52.08;99540.50;4975973;28;45477;-65
2022/05/23 02:41:39;;;;;;;;;4.50;4.50;;;;;21.28;52.06;99536.03;4973326;28;46425;-65
2022/05/23 02:44:05;;;;;;;;;5.00;5.00;;;;;21.26;51.65;99538.00;4975017;28;45478;-64
2022/05/23 02:46:31;;;;;;;;;5.33;5.33;;;;;21.26;52.06;99538.00;4974371;28;45442;-64
2022/05/23 02:48:57;;;;;;;;;4.00;4.00;;;;;21.26;52.25;99542.50;4973667;28;45400;-64
2022/05/23 02:51:23;;;;;;;;;5.00;5.00;;;;;21.25;52.10;99535.47;4973516;28;46114;-64
2022/05/23 02:53:49;;;;;;;;;5.00;5.00;;;;;21.27;52.44;99533.50;4973495;28;45546;-67
2022/05/23 02:56:15;;;;;;;;;4.00;4.00;;;;;21.26;52.24;99531.81;4973153;28;45451;-65
2022/05/23 02:58:41;;;;;;;;;5.00;5.00;;;;;21.28;52.24;99525.31;4975381;28;45636;-67
2022/05/23 03:01:06;;;;;;;;;5.00;5.00;;;;;21.28;52.16;99529.81;4974772;28;46140;-65
2022/05/23 03:03:33;;;;;;;;;5.00;5.00;;;;;21.25;52.40;99527.44;4974732;28;45588;-65
2022/05/23 03:05:58;;;;;;;;;4.00;4.00;;;;;21.29;52.08;99536.88;4974759;28;45537;-62
2022/05/23 03:08:25;;;;;;;;;6.00;5.25;;;;;21.29;52.21;99555.59;4974141;28;45559;-67
2022/05/23 03:10:55;;;;;;;;;5.00;5.00;;;;;21.30;51.97;99567.94;4975348;28;46165;-66
2022/05/23 03:13:20;;;;;;;;;4.00;4.00;;;;;21.29;52.04;99564.44;4974554;28;45455;-68
2022/05/23 03:15:46;;;;;;;;;7.75;5.00;;;;;21.31;52.29;99570.50;4974257;28;45398;-65
2022/05/23 03:18:11;;;;;;;;;5.00;5.00;;;;;21.29;52.08;99563.59;4973729;28;45700;-64
2022/05/23 03:20:37;;;;;;;;;5.00;5.00;;;;;21.27;52.32;99547.69;4974988;28;45913;-67
2022/05/23 03:28:32;;;;;;;;;4.67;4.67;;;;;21.26;52.05;99527.31;4975409;28;45513;-62
2022/05/23 03:30:57;;;;;;;;;4.00;4.00;;;;;21.27;52.40;99530.81;4971030;28;45941;-66
2022/05/23 03:33:23;;;;;;;;;6.33;6.33;;;;;21.26;52.41;99529.13;4974056;28;45536;-65
2022/05/23 03:35:48;;;;;;;;;4.00;4.00;;;;;21.25;52.19;99514.94;4974465;28;45794;-69
2022/05/23 03:38:14;;;;;;;;;6.33;5.67;;;;;21.22;52.22;99501.00;4975230;28;45645;-65
2022/05/23 03:40:41;;;;;;;;;5.00;5.00;;;;;21.25;52.36;99479.31;4972351;28;45584;-68
2022/05/23 03:43:07;;;;;;;;;6.33;6.33;;;;;21.24;52.57;99494.50;4973687;28;45395;-68
2022/05/23 03:45:33;;;;;;;;;4.00;4.00;;;;;21.23;53.10;99495.50;4970447;28;45471;-63
2022/05/23 03:48:00;;;;;;;;;6.00;5.00;;;;;21.10;52.94;99479.81;4972591;28;45576;-66
2022/05/23 03:50:28;;;;;;;;;5.00;5.00;;;;;21.17;53.59;99491.59;4972880;28;46117;-67
2022/05/23 03:52:54;;;;;;;;;6.00;4.50;;;;;21.14;53.25;99481.22;4972194;28;45444;-66
2022/05/23 03:55:20;;;;;;;;;6.75;6.75;;;;;21.09;53.78;99486.16;4970835;28;45406;-70
2022/05/23 03:57:45;;;;;;;;;4.00;4.00;;;;;21.03;53.96;99478.72;4975609;28;45609;-67
2022/05/23 04:00:12;;;;;;;;;3.00;3.00;;;;;20.96;53.87;99481.16;4990660;28;47356;-67
2022/05/23 04:02:38;;;;;;;;;6.67;5.00;;;;;21.02;54.36;99489.56;4976063;28;45659;-66
2022/05/23 04:05:04;;;;;;;;;5.00;5.00;;;;;20.98;54.29;99489.00;4976121;28;45499;-67
2022/05/23 04:07:30;;;;;;;;;4.33;4.33;;;;;20.96;54.92;99472.31;4976684;28;45449;-67
2022/05/23 04:09:56;;;;;;;;;4.50;4.50;;;;;20.95;54.45;99466.13;4977375;28;45486;-69
2022/05/23 04:12:21;;;;;;;;;7.33;7.00;;;;;20.99;54.37;99449.78;4976840;28;45456;-67
2022/05/23 04:14:46;;;;;;;;;6.67;6.67;;;;;20.95;54.74;99447.41;4976805;28;45541;-64
2022/05/23 04:17:12;;;;;;;;;4.33;4.33;;;;;20.94;54.92;99447.53;4976429;28;45487;-63
2022/05/23 04:19:37;;;;;;;;;7.00;6.00;;;;;20.94;55.08;99442.19;4977618;28;45502;-65
2022/05/23 04:22:04;;;;;;;;;8.33;8.33;;;;;20.95;55.26;99436.72;4975339;28;45659;-64
2022/05/23 04:24:29;;;;;;;;;5.67;5.33;;;;;20.95;55.38;99434.03;4977650;28;45464;-64
2022/05/23 04:26:56;;;;;;;;;8.00;7.00;;;;;20.96;55.19;99421.53;4976069;28;45594;-67
2022/05/23 04:29:23;;;;;;;;;6.67;6.67;;;;;20.95;55.50;99417.16;4977584;28;45524;-69
2022/05/23 04:31:48;;;;;;;;;6.00;6.00;;;;;20.92;55.54;99410.25;4975312;28;45523;-65
2022/05/23 04:36:58;;;;;;;;;7.00;7.00;;;;;20.93;55.38;99389.75;4975314;28;45562;-69
2022/05/23 04:39:23;;;;;;;;;6.33;6.33;;;;;20.93;55.55;99366.53;4976908;28;46224;-67
2022/05/23 04:41:49;;;;;;;;;6.33;6.33;;;;;20.91;56.13;99373.00;4976251;28;45530;-67
2022/05/23 04:44:14;;;;;;;;;6.00;5.00;;;;;20.86;56.49;99389.50;4977141;28;45558;-67
2022/05/23 04:49:41;;;;;;;;;7.33;7.33;;;;;20.85;56.83;99403.03;4976447;28;45504;-67
2022/05/23 04:52:12;;;;;;;;;6.00;6.00;;;;;20.84;57.31;99410.16;4976152;28;45481;-65
2022/05/23 04:54:38;;;;;;;;;8.67;6.00;;;;;20.86;57.21;99408.19;4976870;28;45449;-66
2022/05/23 04:57:05;;;;;;;;;5.67;5.67;;;;;20.88;57.01;99408.06;4971591;28;45734;-67
2022/05/23 04:59:31;;;;;;;;;8.00;6.00;;;;;20.86;57.58;99399.34;4976832;28;45592;-69
2022/05/23 05:01:56;;;;;;;;;6.67;6.67;;;;;20.83;57.70;99392.47;4972657;28;45570;-66
2022/05/23 05:04:21;;;;;;;;;9.00;9.00;;;;;20.84;57.86;99372.75;4977067;28;45437;-66
2022/05/23 05:06:47;;;;;;;;;7.00;7.00;;;;;20.85;57.40;99373.63;4976769;28;45426;-66
2022/05/23 05:09:12;;;;;;;;;6.33;6.33;;;;;20.79;57.80;99358.16;4976682;28;46461;-67
2022/05/23 05:11:39;;;;;;;;;6.67;6.33;;;;;20.76;57.46;99363.81;4975097;28;45821;-63
2022/05/23 05:14:05;;;;;;;;;6.67;6.67;;;;;20.73;57.71;99354.25;4977210;28;45567;-64
2022/05/23 05:16:31;;;;;;;;;9.67;8.00;;;;;20.70;58.22;99366.09;4974350;28;45557;-66
2022/05/23 05:18:57;;;;;;;;;8.67;7.67;;;;;20.70;58.62;99373.28;4975599;28;45538;-64
2022/05/23 05:21:23;;;;;;;;;6.00;6.00;;;;;20.70;57.99;99368.75;4976821;28;45370;-69
2022/05/23 05:23:49;;;;;;;;;8.67;7.67;;;;;20.74;57.99;99359.47;4974922;28;45568;-66
2022/05/23 05:26:14;;;;;;;;;7.00;7.00;;;;;20.76;58.67;99353.13;4976723;28;45428;-65
2022/05/23 05:28:39;;;;;;;;;10.00;10.00;;;;;20.78;58.17;99356.50;4978997;28;45570;-59
2022/05/23 05:31:10;;;;;;;;;9.33;8.00;;;;;20.79;58.18;99352.81;4991087;28;45753;-61
2022/05/23 05:33:40;;;;;;;;;8.67;8.67;;;;;20.78;57.81;99364.50;4959785;28;45485;-63
2022/05/23 05:36:16;;;;;;;;;8.33;7.00;;;;;20.81;58.15;99374.91;4962116;28;45832;-62
2022/05/23 05:39:06;;;;;;;;;7.67;7.67;;;;;20.80;58.07;99395.44;4975535;28;45733;-64
2022/05/23 05:41:36;;;;;;;;;7.67;7.67;;;;;20.80;58.24;99402.63;4971115;28;45553;-64
2022/05/23 05:44:07;;;;;;;;;6.67;6.67;;;;;20.77;58.43;99401.09;4973508;28;45863;-60
2022/05/23 05:46:40;;;;;;;;;7.67;7.33;;;;;20.79;58.18;99401.75;4986991;28;45509;-64
2022/05/23 05:49:11;;;;;;;;;7.67;7.67;;;;;20.69;58.49;99390.31;4968376;28;45660;-65
2022/05/23 05:51:40;;;;;;;;;6.67;6.67;;;;;20.66;59.31;99385.22;4972031;28;46356;-64
2022/05/23 05:54:08;;;;;;;;;8.00;8.00;;;;;20.70;58.60;99371.44;4976052;28;45575;-64
2022/05/23 05:56:34;;;;;;;;;5.00;5.00;;;;;20.77;58.37;99366.34;4974150;28;45632;-67
2022/05/23 05:59:00;;;;;;;;;8.67;8.00;;;;;20.81;58.40;99366.88;4973712;28;45941;-66
2022/05/23 06:01:25;;;;;;;;;8.67;7.00;;;;;20.87;58.28;99363.59;4974341;28;45526;-66
2022/05/23 06:03:51;;;;;;;;;7.00;7.00;;;;;20.87;58.11;99372.44;4971900;28;45900;-67
2022/05/23 06:11:43;;;;;;;;;6.00;6.00;;;;;20.89;58.50;99381.16;4976145;28;45468;-64
2022/05/23 06:14:09;;;;;;;;;11.00;9.00;;;;;20.86;58.90;99383.31;4974664;28;45564;-62
2022/05/23 06:16:37;;;;;;;;;8.33;8.33;;;;;20.91;58.28;99392.56;4975280;28;45471;-64
2022/05/23 06:19:03;;;;;;;;;7.33;7.33;;;;;20.89;58.69;99397.19;4973250;28;46397;-65
2022/05/23 06:21:28;;;;;;;;;9.00;8.00;;;;;20.82;59.44;99393.47;4973549;28;45531;-65
2022/05/23 06:23:55;;;;;;;;;7.00;7.00;;;;;20.68;59.53;99383.25;4971847;28;45670;-65
2022/05/23 06:26:22;;;;;;;;;7.33;7.33;;;;;20.68;59.87;99377.91;4975828;28;45442;-64
2022/05/23 06:28:49;;;;;;;;;10.00;7.67;;;;;20.72;59.70;99363.28;4975773;28;45578;-60
2022/05/23 06:31:15;;;;;;;;;9.33;7.00;;;;;20.63;60.21;99340.13;4971696;28;45471;-61
2022/05/23 06:33:41;;;;;;;;;7.00;7.00;;;;;20.70;60.28;99350.06;4972222;28;45521;-63
2022/05/23 06:36:08;;;;;;;;;9.67;9.67;;;;;20.76;59.62;99334.41;4975340;28;45640;-62
2022/05/23 06:38:35;;;;;;;;;8.00;6.67;;;;;20.76;59.55;99318.38;4974079;28;47210;-62
2022/05/23 06:41:02;;;;;;;;;8.33;7.00;;;;;20.83;60.08;99332.84;4975611;28;45518;-63
2022/05/23 06:46:13;;;;;;;;;9.33;8.67;;;;;20.82;60.26;99325.78;4975770;28;45426;-62
2022/05/23 06:48:39;;;;;;;;;8.33;8.33;;;;;20.79;60.83;99334.13;4972469;28;46397;-64
2022/05/23 06:51:06;;;;;;;;;7.67;7.67;;;;;20.75;60.64;99325.56;4968240;28;45476;-62
2022/05/23 06:53:32;;;;;;;;;8.00;8.00;;;;;20.65;61.25;99322.94;4956294;28;45543;-64
2022/05/23 06:55:57;;;;;;;;;7.67;7.67;;;;;20.64;61.12;99331.97;4961551;28;45484;-60
2022/05/23 06:58:23;;;;;;;;;8.67;8.67;;;;;20.70;61.28;99325.19;4975235;28;45486;-64
2022/05/23 07:00:49;;;;;;;;;7.33;7.33;;;;;20.65;61.53;99327.47;4972428;28;45613;-64
2022/05/23 07:03:14;;;;;;;;;10.00;8.67;;;;;20.74;59.95;99334.59;4975256;28;45391;-63
2022/05/23 07:13:55;;;;;;;;;8.00;7.00;;;;;20.70;61.21;99335.88;4975290;28;45481;-63
2022/05/23 07:16:22;;;;;;;;;11.33;10.33;;;;;20.65;61.98;99336.31;4974525;28;45457;-62
2022/05/23 07:18:47;;;;;;;;;8.00;8.00;;;;;20.69;61.31;99336.88;4972282;28;47078;-61
2022/05/23 07:21:13;;;;;;;;;11.00;11.00;;;;;20.66;62.21;99321.97;4973139;28;45777;-60
2022/05/23 07:23:38;;;;;;;;;9.33;9.00;;;;;20.73;61.44;99325.72;4973273;28;45567;-61
2022/05/23 07:26:06;;;;;;;;;8.00;8.00;;;;;20.80;61.98;99336.66;4972577;28;45529;-60
2022/05/23 07:28:32;;;;;;;;;12.00;12.00;;;;;20.69;62.77;99352.91;4964163;28;45489;-65
2022/05/23 07:30:57;;;;;;;;;10.67;10.67;;;;;20.63;62.86;99343.66;4971121;28;45686;-63
2022/05/23 07:33:23;;;;;;;;;11.00;10.00;;;;;20.68;62.91;99340.50;4967248;28;45446;-68
2022/05/23 07:35:57;;;;;;;;;9.00;9.00;;;;;20.70;61.92;99343.88;4955084;28;45579;-59
2022/05/23 07:38:23;;;;;;;;;13.00;11.00;;;;;20.72;62.35;99353.44;4963569;28;46031;-64
2022/05/23 07:40:50;;;;;;;;;12.33;11.00;;;;;20.67;62.94;99354.88;4972426;28;45572;-62
2022/05/23 07:43:16;;;;;;;;;11.00;11.00;;;;;20.58;63.18;99335.25;4973224;28;45505;-63
2022/05/23 07:45:41;;;;;;;;;13.00;12.00;;;;;20.65;62.75;99287.38;4974521;28;45585;-62
2022/05/23 07:48:07;;;;;;;;;10.67;10.67;;;;;20.72;63.37;99275.13;4974412;28;45605;-64
2022/05/23 07:50:32;;;;;;;;;11.33;11.00;;;;;20.81;63.28;99268.84;4974248;28;45414;-64
2022/05/23 08:01:10;;;;;;;;;13.33;12.00;;;;;21.12;62.42;99273.81;4972854;28;45517;-62
2022/05/23 08:03:35;;;;;;;;;11.33;10.67;;;;;21.20;62.61;99281.91;4987844;28;45595;-61
2022/05/23 08:06:01;;;;;;;;;11.67;11.00;;;;;21.24;62.78;99280.56;4974240;28;45653;-63
2022/05/23 08:08:26;;;;;;;;;12.00;12.00;;;;;21.19;63.36;99274.84;4973416;28;45620;-60
2022/05/23 08:10:52;;;;;;;;;16.00;11.33;;;;;21.18;63.25;99267.84;4972107;28;45477;-63
2022/05/23 08:13:17;;;;;;;;;16.67;16.33;;;;;21.16;64.33;99269.81;4973738;28;45519;-63
2022/05/23 08:15:43;;;;;;;;;13.67;13.00;;;;;21.14;65.13;99285.16;4973259;28;45553;-62
2022/05/23 08:18:09;;;;;;;;;12.00;11.00;;;;;21.07;65.57;99276.09;4967091;28;46106;-63
2022/05/23 08:20:36;;;;;;;;;14.00;14.00;;;;;21.09;65.14;99287.47;4970678;28;45483;-64
2022/05/23 08:23:02;;;;;;;;;16.33;16.33;;;;;21.10;65.83;99297.19;4972756;28;45461;-63
2022/05/23 08:25:28;;;;;;;;;13.67;13.67;;;;;21.01;65.23;99304.28;4972701;28;45491;-62
2022/05/23 08:27:53;;;;;;;;;14.00;11.33;;;;;20.95;64.73;99312.91;4972709;28;45473;-61
2022/05/23 08:30:19;;;;;;;;;13.00;12.00;;;;;20.93;65.28;99315.75;4973505;28;45587;-62
2022/05/23 08:32:45;;;;;;;;;12.00;12.00;;;;;20.82;65.48;99307.94;4972588;28;45497;-60
2022/05/23 08:35:10;;;;;;;;;15.33;15.33;;;;;20.85;65.83;99296.97;4972964;28;45509;-60
2022/05/23 08:37:36;;;;;;;;;10.33;10.33;;;;;20.84;65.55;99297.09;4973711;28;46940;-64
2022/05/23 08:40:03;;;;;;;;;12.33;12.33;;;;;20.91;65.29;99303.53;4972412;28;45492;-62
2022/05/23 08:42:35;;;;;;;;;11.00;10.67;;;;;20.91;64.79;99288.31;4971029;28;45574;-63
2022/05/23 08:45:18;;;;;;;;;15.00;14.00;;;;;21.02;65.02;99294.44;4974175;28;45617;-64
2022/05/23 08:47:57;;;;;;;;;15.67;13.33;;;;;21.01;64.81;99288.25;4975467;28;46340;-65
2022/05/23 08:50:55;;;;;;;;;13.00;12.00;;;;;21.01;64.65;99301.63;4976913;28;45568;-63
2022/05/23 08:53:33;;;;;;;;;9.33;9.00;;;;;21.02;64.39;99299.78;4976350;28;45459;-64
2022/05/23 08:56:03;;;;;;;;;62.50;50.25;;;;;21.00;64.77;99296.41;4976900;28;45434;-63
2022/05/23 08:58:38;;;;;;;;;18.00;18.00;;;;;20.93;64.68;99306.88;4976593;28;45563;-62
2022/05/23 09:01:15;;;;;;;;;13.00;11.67;;;;;20.86;64.56;99303.97;4976066;28;45497;-63
2022/05/23 09:03:49;;;;;;;;;13.33;12.67;;;;;20.84;64.33;99297.94;4974616;28;45744;-66
2022/05/23 09:06:34;;;;;;;;;13.33;13.00;;;;;20.81;64.00;99306.25;4957293;28;45478;-65
2022/05/23 09:09:02;;;;;;;;;13.67;13.67;;;;;20.80;63.75;99306.41;4970904;28;45485;-63
2022/05/23 09:11:42;;;;;;;;;14.33;14.33;;;;;20.78;63.60;99327.09;4975410;28;45721;-63
2022/05/23 09:14:11;;;;;;;;;11.00;8.33;;;;;20.75;63.09;99309.53;4975024;28;45552;-61
2022/05/23 09:16:44;;;;;;;;;16.33;14.67;;;;;20.79;63.22;99302.06;4972004;28;45842;-60
2022/05/23 09:19:32;;;;;;;;;12.00;12.00;;;;;20.77;62.99;99315.59;4975877;28;46336;-65
2022/05/23 09:22:17;;;;;;;;;14.33;13.00;;;;;20.78;62.84;99295.88;4974865;28;45500;-62
2022/05/23 09:24:46;;;;;;;;;13.67;13.67;;;;;20.83;62.53;99304.28;4976843;28;45485;-61
2022/05/23 09:27:27;;;;;;;;;16.00;16.00;;;;;20.86;62.55;99311.16;4976592;28;45473;-64
2022/05/23 09:29:55;;;;;;;;;17.33;17.33;;;;;20.87;62.17;99300.28;4975254;28;45478;-60
2022/05/23 09:32:49;;;;;;;;;16.67;16.00;;;;;20.86;62.07;99292.44;4975358;28;46119;-62
2022/05/23 09:35:23;;;;;;;;;18.67;16.67;;;;;20.90;62.31;99286.66;4975264;28;45527;-62
2022/05/23 09:38:23;;;;;;;;;16.00;15.67;;;;;21.03;61.51;99298.78;4973651;28;45499;-61
2022/05/23 09:40:49;;;;;;;;;18.00;18.00;;;;;21.01;61.69;99290.94;4972394;28;46207;-64
2022/05/23 09:49:13;;;;;;;;;13.67;13.33;;;;;21.11;61.38;99294.34;4976021;28;45465;-61
2022/05/23 09:52:09;;;;;;;;;15.33;14.67;;;;;21.04;61.56;99289.78;4975936;28;45483;-62
2022/05/23 09:54:48;;;;;;;;;16.00;15.00;;;;;21.06;61.09;99301.13;4975225;28;45544;-65
2022/05/23 09:57:27;;;;;;;;;16.67;16.67;;;;;21.02;61.22;99297.09;4973345;28;45644;-65
2022/05/23 10:00:03;;;;;;;;;15.67;15.00;;;;;21.00;61.12;99296.41;4974996;28;45417;-61
2022/05/23 10:02:38;;;;;;;;;13.67;13.67;;;;;20.94;60.92;99296.03;4970312;28;45458;-64
2022/05/23 10:05:21;;;;;;;;;91.50;91.25;;;;;20.85;61.42;99272.06;4972370;28;45589;-63
2022/05/23 10:07:54;;;;;;;;;15.67;15.67;;;;;20.93;61.10;99281.00;4972255;28;45473;-62
2022/05/23 10:10:22;;;;;;;;;15.33;13.33;;;;;20.95;60.91;99291.50;4972369;28;45552;-62
2022/05/23 10:13:10;;;;;;;;;55.33;47.00;;;;;20.93;60.84;99283.66;4969331;28;45557;-65
2022/05/23 10:15:43;;;;;;;;;18.33;18.00;;;;;20.84;61.31;99287.25;4970511;28;45595;-65
2022/05/23 10:18:16;;;;;;;;;18.33;18.33;;;;;20.73;61.21;99285.63;4959040;28;45708;-59
2022/05/23 10:20:46;;;;;;;;;16.33;16.33;;;;;20.68;61.15;99297.75;4972736;28;45545;-59
2022/05/23 10:23:15;;;;;;;;;17.00;17.00;;;;;20.67;61.25;99288.09;4989897;28;46129;-64
2022/05/23 10:26:02;;;;;;;;;18.00;17.00;;;;;20.66;60.85;99297.06;4974342;28;45499;-61
2022/05/23 10:28:44;;;;;;;;;22.00;21.67;;;;;20.60;60.64;99287.81;4974668;28;45641;-65
2022/05/23 10:31:37;;;;;;;;;18.33;18.33;;;;;20.61;60.51;99296.72;4974515;28;45613;-63
2022/05/23 10:34:21;;;;;;;;;21.67;19.00;;;;;20.62;60.94;99298.38;4974282;28;45457;-64
2022/05/23 10:36:48;;;;;;;;;19.33;18.00;;;;;20.59;60.85;99288.84;4974927;28;45521;-62
2022/05/23 10:42:20;;;;;;;;;21.33;20.00;;;;;20.57;61.69;99289.97;4974672;28;45398;-62
2022/05/23 10:45:20;;;;;;;;;21.33;20.33;;;;;20.55;61.53;99284.75;4974688;28;46287;-61
2022/05/23 10:47:54;;;;;;;;;21.33;21.00;;;;;20.55;60.95;99291.94;4974867;28;45414;-63
2022/05/23 10:50:44;;;;;;;;;23.00;23.00;;;;;20.49;61.21;99288.00;4989999;28;45840;-62
2022/05/23 10:53:28;;;;;;;;;22.33;21.00;;;;;20.52;61.31;99283.22;4973440;28;45599;-64
2022/05/23 10:56:27;;;;;;;;;25.67;23.00;;;;;20.51;61.49;99276.19;4973242;28;45659;-62
2022/05/23 10:59:08;;;;;;;;;22.00;21.33;;;;;20.50;61.37;99274.53;4974131;28;45493;-66
2022/05/23 11:02:09;;;;;;;;;23.67;22.33;;;;;20.54;61.32;99295.63;4974328;28;45476;-61
2022/05/23 11:05:05;;;;;;;;;22.67;22.67;;;;;20.47;61.54;99312.22;4974241;28;45488;-61
2022/05/23 11:08:00;;;;;;;;;33.33;31.33;;;;;20.35;62.63;99310.72;4988897;28;47263;-65
2022/05/23 11:10:44;;;;;;;;;23.67;22.67;;;;;20.32;62.96;99275.47;4973828;28;45612;-61
2022/05/23 11:13:22;;;;;;;;;25.33;25.33;;;;;20.30;63.43;99276.44;4973104;28;45517;-64
2022/05/23 11:16:32;;;;;;;;;23.67;22.33;;;;;20.27;63.46;99283.94;4968843;28;45506;-64
2022/05/23 11:19:09;;;;;;;;;22.67;22.67;;;;;20.26;63.39;99288.44;4951428;28;45539;-62
2022/05/23 11:21:43;;;;;;;;;29.00;29.00;;;;;20.19;63.42;99290.00;4955062;28;45596;-61
2022/05/23 11:24:25;;;;;;;;;27.67;24.00;;;;;20.17;64.32;99291.97;4954097;28;45478;-65
2022/05/23 11:33:41;;;;;;;;;23.00;23.00;;;;;20.13;64.31;99290.59;4971326;28;45507;-65
2022/05/23 11:35:43;;;;;;;;;25.33;23.67;;;;;20.12;65.02;99291.56;4951521;28;45611;-63
2022/05/23 11:38:11;;;;;;;;;24.33;24.33;;;;;20.16;65.63;99292.97;4950886;28;45595;-64
2022/05/23 11:40:39;;;;;;;;;24.67;22.33;;;;;20.30;64.70;99307.66;4962918;28;45944;-62
2022/05/23 11:43:07;;;;;;;;;25.33;25.00;;;;;20.35;65.37;99302.72;4969357;28;45613;-64
2022/05/23 11:48:28;;;;;;;;;24.67;23.00;;;;;20.57;65.16;99306.00;4962211;28;45657;-66
2022/05/23 11:50:56;;;;;;;;;22.33;22.33;;;;;20.53;64.83;99305.44;4972434;28;46414;-64
2022/05/23 11:53:29;;;;;;;;;23.00;22.33;;;;;20.53;64.67;99305.44;4973045;28;45514;-65
2022/05/23 11:55:55;;;;;;;;;25.00;20.67;;;;;20.46;64.48;99302.50;4973437;28;45596;-64
2022/05/23 11:58:36;;;;;;;;;21.33;21.00;;;;;20.37;64.94;99302.56;4973405;28;45600;-62
2022/05/23 12:01:09;;;;;;;;;24.67;23.67;;;;;20.32;64.73;99302.19;4972925;28;45484;-64
2022/05/23 12:03:49;;;;;;;;;24.33;23.33;;;;;20.23;65.19;99309.22;4973345;28;45424;-64
2022/05/23 12:06:33;;;;;;;;;23.33;23.33;;;;;20.16;65.66;99314.31;4973871;28;45480;-64
2022/05/23 12:09:01;;;;;;;;;23.00;23.00;;;;;20.08;65.52;99317.72;4974401;28;45439;-65
2022/05/23 12:11:41;;;;;;;;;22.33;22.33;;;;;20.01;65.81;99310.44;4972119;28;46204;-64
2022/05/23 12:14:33;;;;;;;;;23.00;21.33;;;;;20.01;65.59;99316.63;4971274;28;45563;-65
2022/05/23 12:16:58;;;;;;;;;18.00;17.67;;;;;20.03;66.09;99327.16;4953580;28;45553;-61
2022/05/23 12:19:38;;;;;;;;;17.67;17.67;;;;;19.93;65.43;99329.00;4956280;28;45523;-65
2022/05/23 12:22:21;;;;;;;;;16.33;15.67;;;;;19.80;64.75;99343.53;4956791;28;45601;-65
2022/05/23 12:25:01;;;;;;;;;19.67;19.33;;;;;19.60;65.11;99331.19;4956579;28;45488;-63
2022/05/23 12:27:39;;;;;;;;;18.33;15.33;;;;;19.49;65.58;99334.84;4956659;28;45490;-60
2022/05/23 12:30:23;;;;;;;;;19.67;19.33;;;;;19.51;65.16;99338.22;4956694;28;45541;-63
2022/05/23 12:32:50;;;;;;;;;20.67;20.67;;;;;19.49;65.41;99347.34;4956485;28;45497;-62
2022/05/23 12:35:20;;;;;;;;;17.67;17.67;;;;;19.37;65.52;99347.50;4956323;28;45502;-64
2022/05/23 12:38:09;;;;;;;;;20.67;18.67;;;;;19.31;65.47;99352.53;4955065;28;45432;-62
2022/05/23 12:40:46;;;;;;;;;22.00;19.67;;;;;19.30;64.71;99358.84;4956543;28;45556;-60